LPE2409 MROC-SPJC
Flight info
| Callsign | LPE2409 |
|---|---|
| Flight time | 3h 15m |
| Altitude | 35000 |
| Route | DOTAS3D DRAKE UM659 OBDEN/N0458F370 UM659 GYV UL780 TRU UV1 ATATU |
| Aircraft | A320/M-SDE3FGHIRWY/LB1 |
Departure
| Time | 2026-05-07 16:17 |
|---|---|
| Airport | Juan Santamaría International Airport (MROC) |
Arrival
| Time | 2026-05-07 19:32 |
|---|---|
| Airport | Jorge Chávez International Airport (SPJC) |
| Time | Latitude | Longitude | Altitude | Speed | Heading |
|---|---|---|---|---|---|
| 2026-05-07 15:49 | 9.99714 | -84.20453 | 3035 ft | 0 kts | 339° |
| 2026-05-07 16:05 | 9.99712 | -84.20453 | 3034 ft | 2 kts | 339° |
| 2026-05-07 16:06 | 9.99688 | -84.20443 | 3028 ft | 4 kts | 339° |
| 2026-05-07 16:06 | 9.99668 | -84.20435 | 3034 ft | 4 kts | 313° |
| 2026-05-07 16:06 | 9.99663 | -84.20415 | 3032 ft | 4 kts | 251° |
| 2026-05-07 16:06 | 9.99672 | -84.20391 | 3035 ft | 3 kts | 249° |
| 2026-05-07 16:07 | 9.99674 | -84.20387 | 3034 ft | 0 kts | 249° |
| 2026-05-07 16:10 | 9.99673 | -84.20389 | 3034 ft | 1 kts | 249° |
| 2026-05-07 16:10 | 9.99667 | -84.20406 | 3037 ft | 4 kts | 249° |
| 2026-05-07 16:10 | 9.99652 | -84.20445 | 3034 ft | 8 kts | 249° |
| 2026-05-07 16:11 | 9.99630 | -84.20505 | 3034 ft | 10 kts | 249° |
| 2026-05-07 16:11 | 9.99604 | -84.20575 | 3033 ft | 11 kts | 249° |
| 2026-05-07 16:11 | 9.99576 | -84.20648 | 3035 ft | 11 kts | 249° |
| 2026-05-07 16:11 | 9.99547 | -84.20726 | 3034 ft | 12 kts | 249° |
| 2026-05-07 16:12 | 9.99516 | -84.20807 | 3036 ft | 13 kts | 249° |
| 2026-05-07 16:12 | 9.99483 | -84.20896 | 3031 ft | 15 kts | 249° |
| 2026-05-07 16:12 | 9.99438 | -84.21018 | 3019 ft | 22 kts | 249° |
| 2026-05-07 16:12 | 9.99377 | -84.21177 | 3006 ft | 25 kts | 249° |
| 2026-05-07 16:13 | 9.99321 | -84.21329 | 2996 ft | 22 kts | 249° |
| 2026-05-07 16:13 | 9.99268 | -84.21469 | 2985 ft | 21 kts | 250° |
| 2026-05-07 16:13 | 9.99213 | -84.21616 | 2974 ft | 24 kts | 249° |
| 2026-05-07 16:13 | 9.99161 | -84.21754 | 2968 ft | 19 kts | 249° |
| 2026-05-07 16:14 | 9.99112 | -84.21885 | 2961 ft | 20 kts | 249° |
| 2026-05-07 16:14 | 9.99102 | -84.22018 | 2956 ft | 20 kts | 278° |
| 2026-05-07 16:14 | 9.99073 | -84.22152 | 2940 ft | 20 kts | 248° |
| 2026-05-07 16:14 | 9.99005 | -84.22203 | 2947 ft | 6 kts | 170° |
| 2026-05-07 16:15 | 9.98974 | -84.22191 | 2949 ft | 6 kts | 160° |
| 2026-05-07 16:15 | 9.98927 | -84.22174 | 2944 ft | 9 kts | 156° |
| 2026-05-07 16:15 | 9.98919 | -84.22135 | 2945 ft | 0 kts | 68° |
| 2026-05-07 16:16 | 9.98969 | -84.22006 | 2957 ft | 51 kts | 69° |
| 2026-05-07 16:16 | 9.99170 | -84.21466 | 2986 ft | 110 kts | 70° |
| 2026-05-07 16:16 | 9.99501 | -84.20583 | 3035 ft | 156 kts | 70° |
| 2026-05-07 16:16 | 9.99914 | -84.19512 | 3542 ft | 161 kts | 70° |
| 2026-05-07 16:17 | 10.00336 | -84.18456 | 4328 ft | 161 kts | 67° |
| 2026-05-07 16:17 | 10.00748 | -84.17387 | 4656 ft | 168 kts | 68° |
| 2026-05-07 16:17 | 10.01202 | -84.16259 | 4867 ft | 181 kts | 68° |
| 2026-05-07 16:17 | 10.01531 | -84.15447 | 4936 ft | 195 kts | 69° |
| 2026-05-07 16:18 | 10.02070 | -84.14107 | 5107 ft | 214 kts | 68° |
| 2026-05-07 16:18 | 10.02360 | -84.12097 | 5491 ft | 227 kts | 107° |
| 2026-05-07 16:18 | 10.01847 | -84.11140 | 5656 ft | 243 kts | 128° |
| 2026-05-07 16:18 | 10.00591 | -84.09878 | 5885 ft | 266 kts | 137° |
| 2026-05-07 16:19 | 9.99112 | -84.08675 | 6366 ft | 277 kts | 141° |
| 2026-05-07 16:19 | 9.97049 | -84.07110 | 7220 ft | 282 kts | 141° |
| 2026-05-07 16:19 | 9.95990 | -84.06307 | 7740 ft | 281 kts | 141° |
| 2026-05-07 16:19 | 9.94418 | -84.05126 | 8483 ft | 283 kts | 146° |
| 2026-05-07 16:20 | 9.92580 | -84.04393 | 9159 ft | 289 kts | 168° |
| 2026-05-07 16:20 | 9.90557 | -84.04452 | 9805 ft | 297 kts | 192° |
| 2026-05-07 16:20 | 9.88668 | -84.05364 | 10318 ft | 311 kts | 214° |
| 2026-05-07 16:20 | 9.86959 | -84.06832 | 10437 ft | 333 kts | 219° |
| 2026-05-07 16:21 | 9.85186 | -84.08458 | 10554 ft | 353 kts | 220° |
| 2026-05-07 16:21 | 9.83360 | -84.10166 | 10971 ft | 355 kts | 221° |
| 2026-05-07 16:21 | 9.81604 | -84.11819 | 12225 ft | 334 kts | 220° |
| 2026-05-07 16:21 | 9.79962 | -84.13358 | 13336 ft | 322 kts | 220° |
| 2026-05-07 16:22 | 9.78267 | -84.14925 | 13532 ft | 339 kts | 219° |
| 2026-05-07 16:22 | 9.76473 | -84.16565 | 13655 ft | 356 kts | 219° |
| 2026-05-07 16:22 | 9.74567 | -84.18303 | 13807 ft | 372 kts | 219° |
| 2026-05-07 16:22 | 9.72642 | -84.20041 | 14114 ft | 379 kts | 216° |
| 2026-05-07 16:23 | 9.70448 | -84.21515 | 14493 ft | 379 kts | 204° |
| 2026-05-07 16:23 | 9.67991 | -84.22482 | 14892 ft | 379 kts | 191° |
| 2026-05-07 16:23 | 9.65389 | -84.22889 | 15326 ft | 378 kts | 179° |
| 2026-05-07 16:23 | 9.62775 | -84.22741 | 15793 ft | 376 kts | 171° |
| 2026-05-07 16:24 | 9.60176 | -84.22373 | 16254 ft | 378 kts | 165° |
| 2026-05-07 16:24 | 9.57612 | -84.21758 | 16682 ft | 380 kts | 163° |
| 2026-05-07 16:24 | 9.55030 | -84.21129 | 17157 ft | 383 kts | 164° |
| 2026-05-07 16:24 | 9.52426 | -84.20495 | 17594 ft | 386 kts | 163° |
| 2026-05-07 16:25 | 9.49810 | -84.19858 | 18045 ft | 389 kts | 163° |
| 2026-05-07 16:25 | 9.47165 | -84.19212 | 18442 ft | 392 kts | 163° |
| 2026-05-07 16:25 | 9.44508 | -84.18566 | 18834 ft | 395 kts | 163° |
| 2026-05-07 16:25 | 9.41828 | -84.17915 | 19237 ft | 397 kts | 163° |
| 2026-05-07 16:26 | 9.39134 | -84.17260 | 19676 ft | 399 kts | 163° |
| 2026-05-07 16:26 | 9.36424 | -84.16602 | 20074 ft | 402 kts | 163° |
| 2026-05-07 16:26 | 9.33696 | -84.15941 | 20449 ft | 404 kts | 163° |
| 2026-05-07 16:26 | 9.30956 | -84.15279 | 20859 ft | 407 kts | 163° |
| 2026-05-07 16:27 | 9.28193 | -84.14612 | 21245 ft | 409 kts | 163° |
| 2026-05-07 16:27 | 9.25414 | -84.13939 | 21624 ft | 412 kts | 163° |
| 2026-05-07 16:27 | 9.22617 | -84.13262 | 21994 ft | 414 kts | 163° |
| 2026-05-07 16:27 | 9.19806 | -84.12581 | 22351 ft | 417 kts | 163° |
| 2026-05-07 16:28 | 9.16982 | -84.11896 | 22688 ft | 419 kts | 163° |
| 2026-05-07 16:28 | 9.14173 | -84.11213 | 23022 ft | 421 kts | 163° |
| 2026-05-07 16:28 | 9.11317 | -84.10518 | 23349 ft | 424 kts | 162° |
| 2026-05-07 16:28 | 9.08445 | -84.09817 | 23641 ft | 426 kts | 163° |
| 2026-05-07 16:29 | 9.05557 | -84.09118 | 23902 ft | 428 kts | 163° |
| 2026-05-07 16:29 | 9.02653 | -84.08418 | 24170 ft | 430 kts | 163° |
| 2026-05-07 16:29 | 8.99736 | -84.07718 | 24434 ft | 431 kts | 163° |
| 2026-05-07 16:29 | 8.96811 | -84.07013 | 24693 ft | 433 kts | 163° |
| 2026-05-07 16:30 | 8.93871 | -84.06299 | 24946 ft | 435 kts | 163° |
| 2026-05-07 16:30 | 8.90927 | -84.05584 | 25201 ft | 437 kts | 163° |
| 2026-05-07 16:30 | 8.87963 | -84.04864 | 25453 ft | 438 kts | 163° |
| 2026-05-07 16:30 | 8.84988 | -84.04142 | 25702 ft | 440 kts | 163° |
| 2026-05-07 16:31 | 8.82006 | -84.03418 | 25949 ft | 442 kts | 163° |
| 2026-05-07 16:31 | 8.79008 | -84.02688 | 26219 ft | 444 kts | 163° |
| 2026-05-07 16:31 | 8.76000 | -84.01955 | 26491 ft | 446 kts | 163° |
| 2026-05-07 16:31 | 8.72974 | -84.01219 | 26735 ft | 448 kts | 164° |
| 2026-05-07 16:32 | 8.69937 | -84.00483 | 26969 ft | 450 kts | 164° |
| 2026-05-07 16:32 | 8.66939 | -83.99603 | 27204 ft | 449 kts | 157° |
| 2026-05-07 16:32 | 8.64015 | -83.98472 | 27443 ft | 450 kts | 157° |
| 2026-05-07 16:32 | 8.61090 | -83.97330 | 27677 ft | 452 kts | 157° |
| 2026-05-07 16:33 | 8.58152 | -83.96177 | 27930 ft | 453 kts | 157° |
| 2026-05-07 16:33 | 8.55223 | -83.95025 | 28260 ft | 452 kts | 157° |
| 2026-05-07 16:33 | 8.52294 | -83.93872 | 28595 ft | 451 kts | 157° |
| 2026-05-07 16:33 | 8.49365 | -83.92719 | 28921 ft | 451 kts | 157° |
| 2026-05-07 16:34 | 8.46445 | -83.91576 | 29258 ft | 451 kts | 158° |
| 2026-05-07 16:34 | 8.43525 | -83.90436 | 29618 ft | 449 kts | 158° |
| 2026-05-07 16:34 | 8.40612 | -83.89301 | 29998 ft | 448 kts | 158° |
| 2026-05-07 16:34 | 8.37701 | -83.88166 | 30299 ft | 448 kts | 158° |
| 2026-05-07 16:35 | 8.34797 | -83.87027 | 30579 ft | 448 kts | 158° |
| 2026-05-07 16:35 | 8.31937 | -83.85904 | 30850 ft | 448 kts | 158° |
| 2026-05-07 16:35 | 8.29030 | -83.84765 | 31128 ft | 448 kts | 158° |
| 2026-05-07 16:35 | 8.26132 | -83.83633 | 31440 ft | 447 kts | 158° |
| 2026-05-07 16:36 | 8.23232 | -83.82502 | 31766 ft | 446 kts | 158° |
| 2026-05-07 16:36 | 8.20344 | -83.81376 | 32098 ft | 445 kts | 158° |
| 2026-05-07 16:36 | 8.17464 | -83.80250 | 32433 ft | 444 kts | 158° |
| 2026-05-07 16:36 | 8.14588 | -83.79125 | 32770 ft | 443 kts | 158° |
| 2026-05-07 16:37 | 8.11718 | -83.78001 | 33102 ft | 442 kts | 158° |
| 2026-05-07 16:37 | 8.08858 | -83.76880 | 33426 ft | 441 kts | 158° |
| 2026-05-07 16:37 | 8.06004 | -83.75764 | 33749 ft | 440 kts | 159° |
| 2026-05-07 16:37 | 8.03156 | -83.74653 | 34036 ft | 439 kts | 159° |
| 2026-05-07 16:38 | 8.00306 | -83.73541 | 34279 ft | 438 kts | 159° |
| 2026-05-07 16:38 | 7.97462 | -83.72432 | 34513 ft | 438 kts | 159° |
| 2026-05-07 16:38 | 7.94614 | -83.71323 | 34734 ft | 439 kts | 159° |
| 2026-05-07 16:38 | 7.91770 | -83.70215 | 34894 ft | 440 kts | 158° |
| 2026-05-07 16:39 | 7.88904 | -83.69095 | 34949 ft | 444 kts | 158° |
| 2026-05-07 16:39 | 7.83071 | -83.66807 | 34954 ft | 455 kts | 158° |
| 2026-05-07 16:40 | 7.77122 | -83.64493 | 34950 ft | 460 kts | 158° |
| 2026-05-07 16:40 | 7.71145 | -83.62169 | 34950 ft | 461 kts | 158° |
| 2026-05-07 16:41 | 7.65163 | -83.59839 | 34953 ft | 461 kts | 158° |
| 2026-05-07 16:41 | 7.59190 | -83.57505 | 34953 ft | 460 kts | 158° |
| 2026-05-07 16:42 | 7.53252 | -83.55190 | 34954 ft | 461 kts | 158° |
| 2026-05-07 16:42 | 7.47269 | -83.52856 | 34956 ft | 461 kts | 158° |
| 2026-05-07 16:43 | 7.41281 | -83.50530 | 34958 ft | 461 kts | 158° |
| 2026-05-07 16:43 | 7.35294 | -83.48201 | 34959 ft | 461 kts | 158° |
| 2026-05-07 16:44 | 7.29302 | -83.45864 | 34963 ft | 461 kts | 158° |
| 2026-05-07 16:44 | 7.23311 | -83.43535 | 34963 ft | 461 kts | 158° |
| 2026-05-07 16:45 | 7.17327 | -83.41206 | 34963 ft | 461 kts | 158° |
| 2026-05-07 16:45 | 7.11342 | -83.38881 | 34962 ft | 461 kts | 158° |
| 2026-05-07 16:46 | 7.05356 | -83.36554 | 34962 ft | 461 kts | 158° |
| 2026-05-07 16:46 | 6.99368 | -83.34232 | 34961 ft | 461 kts | 158° |
| 2026-05-07 16:47 | 6.93382 | -83.31899 | 34964 ft | 461 kts | 158° |
| 2026-05-07 16:47 | 6.87393 | -83.29572 | 34965 ft | 461 kts | 158° |
| 2026-05-07 16:48 | 6.81401 | -83.27246 | 34963 ft | 461 kts | 158° |
| 2026-05-07 16:48 | 6.75410 | -83.24919 | 34964 ft | 461 kts | 158° |
| 2026-05-07 16:49 | 6.69460 | -83.22606 | 34968 ft | 461 kts | 158° |
| 2026-05-07 16:49 | 6.63478 | -83.20283 | 34972 ft | 461 kts | 158° |
| 2026-05-07 16:50 | 6.57484 | -83.17956 | 34970 ft | 461 kts | 158° |
| 2026-05-07 16:50 | 6.51497 | -83.15643 | 34971 ft | 461 kts | 158° |
| 2026-05-07 16:51 | 6.45504 | -83.13328 | 34979 ft | 461 kts | 158° |
| 2026-05-07 16:51 | 6.39517 | -83.11003 | 34978 ft | 461 kts | 158° |
| 2026-05-07 16:52 | 6.33536 | -83.08680 | 34973 ft | 461 kts | 158° |
| 2026-05-07 16:52 | 6.27558 | -83.06362 | 34971 ft | 460 kts | 158° |
| 2026-05-07 16:53 | 6.21583 | -83.04048 | 34973 ft | 460 kts | 158° |
| 2026-05-07 16:53 | 6.15612 | -83.01740 | 34972 ft | 460 kts | 158° |
| 2026-05-07 16:54 | 6.09646 | -82.99424 | 34964 ft | 460 kts | 158° |
| 2026-05-07 16:54 | 6.03672 | -82.97114 | 34966 ft | 459 kts | 158° |
| 2026-05-07 16:55 | 5.97749 | -82.94828 | 34970 ft | 459 kts | 158° |
| 2026-05-07 16:55 | 5.91787 | -82.92521 | 34971 ft | 459 kts | 158° |
| 2026-05-07 16:56 | 5.85825 | -82.90220 | 34969 ft | 459 kts | 158° |
| 2026-05-07 16:56 | 5.76862 | -82.86811 | 34968 ft | 459 kts | 158° |
| 2026-05-07 16:57 | 5.70883 | -82.84543 | 34969 ft | 459 kts | 158° |
| 2026-05-07 16:57 | 5.64906 | -82.82264 | 34968 ft | 460 kts | 158° |
| 2026-05-07 16:58 | 5.58926 | -82.79981 | 34963 ft | 460 kts | 158° |
| 2026-05-07 16:58 | 5.52931 | -82.77691 | 34963 ft | 461 kts | 158° |
| 2026-05-07 16:59 | 5.46934 | -82.75406 | 34965 ft | 461 kts | 158° |
| 2026-05-07 16:59 | 5.40929 | -82.73126 | 34967 ft | 462 kts | 158° |
| 2026-05-07 17:00 | 5.34917 | -82.70841 | 34967 ft | 461 kts | 158° |
| 2026-05-07 17:00 | 5.28919 | -82.68560 | 34966 ft | 461 kts | 158° |
| 2026-05-07 17:01 | 5.22912 | -82.66276 | 34967 ft | 461 kts | 158° |
| 2026-05-07 17:01 | 5.16917 | -82.63995 | 34966 ft | 461 kts | 158° |
| 2026-05-07 17:02 | 5.10911 | -82.61712 | 34964 ft | 462 kts | 158° |
| 2026-05-07 17:02 | 5.04943 | -82.59441 | 34965 ft | 462 kts | 158° |
| 2026-05-07 17:03 | 4.98933 | -82.57160 | 34967 ft | 461 kts | 158° |
| 2026-05-07 17:03 | 4.92926 | -82.54882 | 34966 ft | 461 kts | 158° |
| 2026-05-07 17:04 | 4.86930 | -82.52600 | 34962 ft | 461 kts | 158° |
| 2026-05-07 17:04 | 4.80931 | -82.50315 | 34960 ft | 461 kts | 158° |
| 2026-05-07 17:05 | 4.74924 | -82.48033 | 34964 ft | 462 kts | 158° |
| 2026-05-07 17:05 | 4.68916 | -82.45754 | 34965 ft | 462 kts | 158° |
| 2026-05-07 17:06 | 4.62907 | -82.43471 | 34963 ft | 462 kts | 158° |
| 2026-05-07 17:06 | 4.56892 | -82.41191 | 34963 ft | 462 kts | 158° |
| 2026-05-07 17:07 | 4.50883 | -82.38907 | 34961 ft | 462 kts | 158° |
| 2026-05-07 17:07 | 4.44864 | -82.36607 | 34955 ft | 463 kts | 158° |
| 2026-05-07 17:08 | 4.38849 | -82.34302 | 34953 ft | 464 kts | 158° |
| 2026-05-07 17:08 | 4.33837 | -82.32385 | 34950 ft | 464 kts | 158° |
| 2026-05-07 17:09 | 4.27797 | -82.30081 | 34952 ft | 464 kts | 158° |
| 2026-05-07 17:09 | 4.20776 | -82.27392 | 34952 ft | 465 kts | 158° |
| 2026-05-07 17:10 | 4.14737 | -82.25084 | 34957 ft | 465 kts | 158° |
| 2026-05-07 17:10 | 4.09669 | -82.23154 | 34952 ft | 466 kts | 158° |
| 2026-05-07 17:11 | 4.03600 | -82.20843 | 34950 ft | 466 kts | 158° |
| 2026-05-07 17:11 | 3.97532 | -82.18525 | 34954 ft | 467 kts | 158° |
| 2026-05-07 17:12 | 3.91465 | -82.16209 | 34957 ft | 467 kts | 158° |
| 2026-05-07 17:12 | 3.85426 | -82.13908 | 34959 ft | 467 kts | 158° |
| 2026-05-07 17:13 | 3.79347 | -82.11597 | 34960 ft | 467 kts | 158° |
| 2026-05-07 17:13 | 3.73270 | -82.09285 | 34966 ft | 466 kts | 158° |
| 2026-05-07 17:14 | 3.67213 | -82.06974 | 34965 ft | 465 kts | 158° |
| 2026-05-07 17:14 | 3.61177 | -82.04667 | 34963 ft | 464 kts | 158° |
| 2026-05-07 17:15 | 3.55140 | -82.02366 | 34963 ft | 464 kts | 158° |
| 2026-05-07 17:15 | 3.49111 | -82.00075 | 34961 ft | 464 kts | 158° |
| 2026-05-07 17:16 | 3.43077 | -81.97791 | 34958 ft | 464 kts | 158° |
| 2026-05-07 17:16 | 3.37046 | -81.95515 | 34957 ft | 463 kts | 158° |
| 2026-05-07 17:17 | 3.31009 | -81.93233 | 34958 ft | 463 kts | 158° |
| 2026-05-07 17:17 | 3.24983 | -81.90942 | 34958 ft | 463 kts | 158° |
| 2026-05-07 17:18 | 3.18956 | -81.88662 | 34958 ft | 463 kts | 158° |
| 2026-05-07 17:18 | 3.12967 | -81.86394 | 34956 ft | 463 kts | 158° |
| 2026-05-07 17:19 | 3.06942 | -81.84115 | 34951 ft | 463 kts | 159° |
| 2026-05-07 17:19 | 3.00915 | -81.81836 | 34950 ft | 463 kts | 159° |
| 2026-05-07 17:20 | 2.94895 | -81.79546 | 34953 ft | 463 kts | 159° |
| 2026-05-07 17:20 | 2.88871 | -81.77271 | 34956 ft | 463 kts | 158° |
| 2026-05-07 17:21 | 2.82842 | -81.74999 | 34958 ft | 463 kts | 158° |
| 2026-05-07 17:21 | 2.76821 | -81.72724 | 34959 ft | 463 kts | 158° |
| 2026-05-07 17:22 | 2.70793 | -81.70442 | 34956 ft | 463 kts | 159° |
| 2026-05-07 17:22 | 2.64775 | -81.68160 | 34955 ft | 462 kts | 158° |
| 2026-05-07 17:23 | 2.58753 | -81.65884 | 34961 ft | 462 kts | 159° |
| 2026-05-07 17:23 | 2.52737 | -81.63613 | 34958 ft | 462 kts | 159° |
| 2026-05-07 17:24 | 2.46763 | -81.61361 | 34954 ft | 462 kts | 159° |
| 2026-05-07 17:24 | 2.40745 | -81.59086 | 34954 ft | 462 kts | 159° |
| 2026-05-07 17:25 | 2.34729 | -81.56813 | 34957 ft | 462 kts | 159° |
| 2026-05-07 17:25 | 2.28712 | -81.54539 | 34957 ft | 462 kts | 159° |
| 2026-05-07 17:26 | 2.22701 | -81.52267 | 34959 ft | 462 kts | 158° |
| 2026-05-07 17:26 | 2.16692 | -81.49992 | 34958 ft | 461 kts | 159° |
| 2026-05-07 17:27 | 2.10689 | -81.47724 | 34960 ft | 461 kts | 159° |
| 2026-05-07 17:27 | 2.04691 | -81.45463 | 34959 ft | 461 kts | 159° |
| 2026-05-07 17:28 | 1.98696 | -81.43202 | 34955 ft | 461 kts | 159° |
| 2026-05-07 17:28 | 1.92693 | -81.40941 | 34955 ft | 461 kts | 159° |
| 2026-05-07 17:29 | 1.86699 | -81.38679 | 34959 ft | 460 kts | 159° |
| 2026-05-07 17:29 | 1.80759 | -81.36424 | 34959 ft | 460 kts | 159° |
| 2026-05-07 17:30 | 1.74772 | -81.34171 | 34952 ft | 459 kts | 158° |
| 2026-05-07 17:30 | 1.68801 | -81.31922 | 34952 ft | 459 kts | 158° |
| 2026-05-07 17:31 | 1.62835 | -81.29661 | 34952 ft | 458 kts | 159° |
| 2026-05-07 17:31 | 1.56868 | -81.27409 | 34947 ft | 458 kts | 159° |
| 2026-05-07 17:32 | 1.50896 | -81.25162 | 34941 ft | 458 kts | 159° |
| 2026-05-07 17:32 | 1.44926 | -81.22912 | 34943 ft | 458 kts | 159° |
| 2026-05-07 17:33 | 1.38959 | -81.20657 | 34942 ft | 459 kts | 158° |
| 2026-05-07 17:33 | 1.32997 | -81.18384 | 34942 ft | 459 kts | 158° |
| 2026-05-07 17:34 | 1.27035 | -81.16101 | 34941 ft | 459 kts | 158° |
| 2026-05-07 17:34 | 1.21065 | -81.13828 | 34942 ft | 459 kts | 158° |
| 2026-05-07 17:35 | 1.15095 | -81.11550 | 34947 ft | 459 kts | 158° |
| 2026-05-07 17:35 | 1.09172 | -81.09297 | 34950 ft | 459 kts | 159° |
| 2026-05-07 17:36 | 1.03209 | -81.07026 | 34948 ft | 458 kts | 159° |
| 2026-05-07 17:36 | 0.97248 | -81.04754 | 34947 ft | 459 kts | 159° |
| 2026-05-07 17:37 | 0.91289 | -81.02487 | 34947 ft | 458 kts | 159° |
| 2026-05-07 17:37 | 0.85330 | -81.00220 | 34949 ft | 458 kts | 159° |
| 2026-05-07 17:38 | 0.79377 | -80.97952 | 34948 ft | 458 kts | 159° |
| 2026-05-07 17:38 | 0.73429 | -80.95688 | 34946 ft | 458 kts | 159° |
| 2026-05-07 17:39 | 0.67468 | -80.93417 | 34947 ft | 458 kts | 159° |
| 2026-05-07 17:39 | 0.61510 | -80.91153 | 34948 ft | 458 kts | 159° |
| 2026-05-07 17:40 | 0.55552 | -80.88884 | 34947 ft | 458 kts | 159° |
| 2026-05-07 17:40 | 0.49598 | -80.86610 | 34947 ft | 458 kts | 159° |
| 2026-05-07 17:41 | 0.43637 | -80.84340 | 34943 ft | 458 kts | 159° |
| 2026-05-07 17:41 | 0.37721 | -80.82091 | 34943 ft | 458 kts | 159° |
| 2026-05-07 17:42 | 0.31771 | -80.79827 | 34945 ft | 458 kts | 159° |
| 2026-05-07 17:42 | 0.25817 | -80.77561 | 34943 ft | 457 kts | 159° |
| 2026-05-07 17:43 | 0.19871 | -80.75301 | 34938 ft | 457 kts | 159° |
| 2026-05-07 17:43 | 0.13923 | -80.73036 | 34939 ft | 457 kts | 159° |
| 2026-05-07 17:44 | 0.07978 | -80.70766 | 34937 ft | 457 kts | 159° |
| 2026-05-07 17:44 | 0.02027 | -80.68502 | 34936 ft | 457 kts | 159° |
| 2026-05-07 17:45 | -0.03924 | -80.66242 | 34932 ft | 457 kts | 159° |
| 2026-05-07 17:45 | -0.09869 | -80.63981 | 34932 ft | 457 kts | 159° |
| 2026-05-07 17:46 | -0.15815 | -80.61714 | 34932 ft | 458 kts | 159° |
| 2026-05-07 17:46 | -0.21764 | -80.59446 | 34932 ft | 458 kts | 159° |
| 2026-05-07 17:47 | -0.27716 | -80.57184 | 34933 ft | 457 kts | 159° |
| 2026-05-07 17:47 | -0.33623 | -80.54933 | 34929 ft | 457 kts | 159° |
| 2026-05-07 17:48 | -0.39577 | -80.52665 | 34917 ft | 458 kts | 159° |
| 2026-05-07 17:48 | -0.45533 | -80.50397 | 34907 ft | 459 kts | 159° |
| 2026-05-07 17:49 | -0.51510 | -80.48120 | 34910 ft | 460 kts | 159° |
| 2026-05-07 17:49 | -0.57486 | -80.45841 | 34917 ft | 460 kts | 159° |
| 2026-05-07 17:50 | -0.63468 | -80.43568 | 34908 ft | 460 kts | 159° |
| 2026-05-07 17:50 | -0.69458 | -80.41292 | 34910 ft | 460 kts | 159° |
| 2026-05-07 17:51 | -0.75448 | -80.39012 | 34912 ft | 461 kts | 159° |
| 2026-05-07 17:51 | -0.81422 | -80.36736 | 34922 ft | 459 kts | 159° |
| 2026-05-07 17:52 | -0.87390 | -80.34460 | 34926 ft | 458 kts | 159° |
| 2026-05-07 17:52 | -0.93344 | -80.32194 | 34920 ft | 458 kts | 160° |
| 2026-05-07 17:53 | -0.99294 | -80.29931 | 34924 ft | 458 kts | 159° |
| 2026-05-07 17:53 | -1.05247 | -80.27667 | 34920 ft | 458 kts | 159° |
| 2026-05-07 17:54 | -1.11163 | -80.25418 | 34922 ft | 458 kts | 160° |
| 2026-05-07 17:54 | -1.17116 | -80.23149 | 34912 ft | 458 kts | 160° |
| 2026-05-07 17:55 | -1.23078 | -80.20876 | 34901 ft | 459 kts | 160° |
| 2026-05-07 17:55 | -1.29051 | -80.18603 | 34899 ft | 460 kts | 160° |
| 2026-05-07 17:56 | -1.35029 | -80.16326 | 34909 ft | 460 kts | 160° |
| 2026-05-07 17:56 | -1.41019 | -80.14042 | 34908 ft | 460 kts | 160° |
| 2026-05-07 17:57 | -1.45991 | -80.12150 | 34909 ft | 460 kts | 160° |
| 2026-05-07 17:57 | -1.52984 | -80.09481 | 34903 ft | 461 kts | 160° |
| 2026-05-07 17:58 | -1.58980 | -80.07196 | 34894 ft | 461 kts | 160° |
| 2026-05-07 17:58 | -1.64983 | -80.04912 | 34897 ft | 462 kts | 160° |
| 2026-05-07 17:59 | -1.70991 | -80.02629 | 34896 ft | 462 kts | 160° |
| 2026-05-07 17:59 | -1.76961 | -80.00351 | 34901 ft | 462 kts | 160° |
| 2026-05-07 18:00 | -1.79965 | -79.99203 | 35010 ft | 463 kts | 160° |
| 2026-05-07 18:00 | -1.82970 | -79.98058 | 35291 ft | 462 kts | 160° |
| 2026-05-07 18:00 | -1.85968 | -79.96920 | 35564 ft | 461 kts | 160° |
| 2026-05-07 18:00 | -1.88963 | -79.95782 | 35825 ft | 460 kts | 161° |
| 2026-05-07 18:01 | -1.91959 | -79.94642 | 36074 ft | 460 kts | 161° |
| 2026-05-07 18:01 | -1.94943 | -79.93507 | 36308 ft | 460 kts | 161° |
| 2026-05-07 18:01 | -1.97931 | -79.92368 | 36539 ft | 459 kts | 161° |
| 2026-05-07 18:01 | -2.00919 | -79.91231 | 36772 ft | 459 kts | 161° |
| 2026-05-07 18:02 | -2.06893 | -79.88956 | 36891 ft | 459 kts | 161° |
| 2026-05-07 18:02 | -2.09879 | -79.87818 | 36890 ft | 459 kts | 161° |
| 2026-05-07 18:03 | -2.16030 | -79.86276 | 36919 ft | 455 kts | 175° |
| 2026-05-07 18:03 | -2.22312 | -79.85477 | 36923 ft | 455 kts | 174° |
| 2026-05-07 18:04 | -2.28597 | -79.84668 | 36916 ft | 455 kts | 175° |
| 2026-05-07 18:04 | -2.34872 | -79.83860 | 36925 ft | 455 kts | 175° |
| 2026-05-07 18:05 | -2.40085 | -79.83195 | 36935 ft | 455 kts | 175° |
| 2026-05-07 18:05 | -2.46375 | -79.82394 | 36942 ft | 455 kts | 175° |
| 2026-05-07 18:06 | -2.52654 | -79.81588 | 36952 ft | 455 kts | 175° |
| 2026-05-07 18:06 | -2.58936 | -79.80782 | 36962 ft | 455 kts | 175° |
| 2026-05-07 18:07 | -2.65218 | -79.79979 | 36965 ft | 455 kts | 175° |
| 2026-05-07 18:07 | -2.71497 | -79.79172 | 36977 ft | 455 kts | 175° |
| 2026-05-07 18:08 | -2.77776 | -79.78362 | 36979 ft | 455 kts | 175° |
| 2026-05-07 18:08 | -2.84060 | -79.77557 | 36984 ft | 455 kts | 175° |
| 2026-05-07 18:09 | -2.90340 | -79.76753 | 37002 ft | 455 kts | 175° |
| 2026-05-07 18:09 | -2.96620 | -79.75948 | 37003 ft | 455 kts | 175° |
| 2026-05-07 18:10 | -3.02896 | -79.75148 | 37034 ft | 455 kts | 175° |
| 2026-05-07 18:10 | -3.09173 | -79.74344 | 37028 ft | 454 kts | 175° |
| 2026-05-07 18:11 | -3.15396 | -79.73547 | 37028 ft | 454 kts | 175° |
| 2026-05-07 18:11 | -3.21666 | -79.72751 | 37023 ft | 454 kts | 176° |
| 2026-05-07 18:12 | -3.27937 | -79.71957 | 37064 ft | 454 kts | 176° |
| 2026-05-07 18:12 | -3.34193 | -79.71154 | 37044 ft | 454 kts | 175° |
| 2026-05-07 18:13 | -3.40458 | -79.70343 | 37039 ft | 453 kts | 176° |
| 2026-05-07 18:13 | -3.46712 | -79.69540 | 37033 ft | 453 kts | 176° |
| 2026-05-07 18:14 | -3.52970 | -79.68741 | 37076 ft | 453 kts | 176° |
| 2026-05-07 18:14 | -3.59227 | -79.67935 | 37072 ft | 453 kts | 176° |
| 2026-05-07 18:15 | -3.65478 | -79.67136 | 37066 ft | 453 kts | 176° |
| 2026-05-07 18:15 | -3.71726 | -79.66335 | 37076 ft | 453 kts | 176° |
| 2026-05-07 18:16 | -3.77980 | -79.65533 | 37084 ft | 453 kts | 176° |
| 2026-05-07 18:16 | -3.84222 | -79.64730 | 37089 ft | 453 kts | 176° |
| 2026-05-07 18:17 | -3.90464 | -79.63926 | 37087 ft | 452 kts | 176° |
| 2026-05-07 18:17 | -3.96678 | -79.63132 | 37095 ft | 453 kts | 176° |
| 2026-05-07 18:18 | -4.02967 | -79.62328 | 37097 ft | 453 kts | 176° |
| 2026-05-07 18:18 | -4.09211 | -79.61527 | 37084 ft | 452 kts | 176° |
| 2026-05-07 18:19 | -4.15454 | -79.60730 | 37084 ft | 452 kts | 176° |
| 2026-05-07 18:19 | -4.21651 | -79.59935 | 37066 ft | 452 kts | 176° |
| 2026-05-07 18:20 | -4.27893 | -79.59133 | 37061 ft | 452 kts | 176° |
| 2026-05-07 18:20 | -4.34137 | -79.58330 | 37056 ft | 452 kts | 176° |
| 2026-05-07 18:21 | -4.40378 | -79.57524 | 37064 ft | 452 kts | 176° |
| 2026-05-07 18:21 | -4.46619 | -79.56724 | 37101 ft | 452 kts | 176° |
| 2026-05-07 18:22 | -4.52858 | -79.55925 | 37120 ft | 452 kts | 176° |
| 2026-05-07 18:22 | -4.59103 | -79.55146 | 37112 ft | 452 kts | 176° |
| 2026-05-07 18:23 | -4.65349 | -79.54378 | 37136 ft | 452 kts | 176° |
| 2026-05-07 18:23 | -4.71599 | -79.53604 | 37133 ft | 453 kts | 176° |
| 2026-05-07 18:24 | -4.77850 | -79.52823 | 37135 ft | 453 kts | 176° |
| 2026-05-07 18:24 | -4.84101 | -79.52040 | 37151 ft | 453 kts | 176° |
| 2026-05-07 18:25 | -4.90358 | -79.51262 | 37149 ft | 453 kts | 176° |
| 2026-05-07 18:25 | -4.96622 | -79.50477 | 37151 ft | 454 kts | 176° |
| 2026-05-07 18:26 | -5.02888 | -79.49694 | 37150 ft | 454 kts | 176° |
| 2026-05-07 18:26 | -5.09120 | -79.48918 | 37151 ft | 454 kts | 176° |
| 2026-05-07 18:27 | -5.15393 | -79.48141 | 37139 ft | 454 kts | 176° |
| 2026-05-07 18:27 | -5.21670 | -79.47349 | 37141 ft | 455 kts | 176° |
| 2026-05-07 18:28 | -5.27947 | -79.46560 | 37130 ft | 455 kts | 176° |
| 2026-05-07 18:28 | -5.34231 | -79.45780 | 37130 ft | 455 kts | 176° |
| 2026-05-07 18:29 | -5.40517 | -79.45000 | 37107 ft | 455 kts | 176° |
| 2026-05-07 18:29 | -5.46805 | -79.44206 | 37109 ft | 456 kts | 176° |
| 2026-05-07 18:30 | -5.53089 | -79.43413 | 37107 ft | 454 kts | 177° |
| 2026-05-07 18:30 | -5.59375 | -79.42630 | 37121 ft | 456 kts | 176° |
| 2026-05-07 18:31 | -5.65665 | -79.41848 | 37135 ft | 456 kts | 177° |
| 2026-05-07 18:31 | -5.71961 | -79.41056 | 37125 ft | 455 kts | 177° |
| 2026-05-07 18:32 | -5.78237 | -79.40265 | 37122 ft | 455 kts | 177° |
| 2026-05-07 18:32 | -5.84476 | -79.39479 | 37121 ft | 454 kts | 177° |
| 2026-05-07 18:33 | -5.90747 | -79.38696 | 37117 ft | 454 kts | 177° |
| 2026-05-07 18:33 | -5.97012 | -79.37907 | 37113 ft | 454 kts | 177° |
| 2026-05-07 18:34 | -6.03279 | -79.37124 | 37101 ft | 454 kts | 177° |
| 2026-05-07 18:34 | -6.09550 | -79.36339 | 37101 ft | 455 kts | 177° |
| 2026-05-07 18:35 | -6.15836 | -79.35555 | 37092 ft | 455 kts | 177° |
| 2026-05-07 18:35 | -6.22119 | -79.34765 | 37088 ft | 454 kts | 177° |
| 2026-05-07 18:36 | -6.28403 | -79.33977 | 37068 ft | 455 kts | 177° |
| 2026-05-07 18:36 | -6.34691 | -79.33180 | 37074 ft | 455 kts | 177° |
| 2026-05-07 18:37 | -6.40974 | -79.32386 | 37071 ft | 455 kts | 177° |
| 2026-05-07 18:37 | -6.47264 | -79.31594 | 37047 ft | 455 kts | 177° |
| 2026-05-07 18:38 | -6.53543 | -79.30805 | 37048 ft | 455 kts | 177° |
| 2026-05-07 18:38 | -6.59787 | -79.30024 | 37038 ft | 455 kts | 177° |
| 2026-05-07 18:39 | -6.66068 | -79.29235 | 37032 ft | 455 kts | 177° |
| 2026-05-07 18:39 | -6.72352 | -79.28447 | 37033 ft | 455 kts | 177° |
| 2026-05-07 18:40 | -6.78636 | -79.27657 | 37061 ft | 455 kts | 177° |
| 2026-05-07 18:40 | -6.84923 | -79.26873 | 37058 ft | 456 kts | 177° |
| 2026-05-07 18:41 | -6.91215 | -79.26081 | 37040 ft | 456 kts | 177° |
| 2026-05-07 18:41 | -6.97517 | -79.25289 | 37043 ft | 456 kts | 177° |
| 2026-05-07 18:42 | -7.03812 | -79.24503 | 37034 ft | 456 kts | 177° |
| 2026-05-07 18:42 | -7.10108 | -79.23708 | 37042 ft | 456 kts | 177° |
| 2026-05-07 18:43 | -7.16409 | -79.22916 | 37035 ft | 456 kts | 178° |
| 2026-05-07 18:43 | -7.22704 | -79.22119 | 37016 ft | 457 kts | 178° |
| 2026-05-07 18:44 | -7.28971 | -79.21327 | 37018 ft | 457 kts | 178° |
| 2026-05-07 18:44 | -7.35279 | -79.20534 | 37000 ft | 457 kts | 178° |
| 2026-05-07 18:45 | -7.41590 | -79.19746 | 36985 ft | 456 kts | 178° |
| 2026-05-07 18:45 | -7.47896 | -79.18948 | 36993 ft | 457 kts | 178° |
| 2026-05-07 18:46 | -7.54205 | -79.18145 | 36994 ft | 457 kts | 178° |
| 2026-05-07 18:46 | -7.60521 | -79.17351 | 36993 ft | 457 kts | 178° |
| 2026-05-07 18:47 | -7.66830 | -79.16557 | 36990 ft | 457 kts | 178° |
| 2026-05-07 18:47 | -7.73144 | -79.15767 | 36987 ft | 457 kts | 178° |
| 2026-05-07 18:48 | -7.79456 | -79.14967 | 36978 ft | 457 kts | 178° |
| 2026-05-07 18:48 | -7.85769 | -79.14162 | 36981 ft | 457 kts | 178° |
| 2026-05-07 18:49 | -7.92084 | -79.13359 | 36981 ft | 457 kts | 178° |
| 2026-05-07 18:49 | -7.98399 | -79.12571 | 36986 ft | 457 kts | 178° |
| 2026-05-07 18:50 | -8.04718 | -79.11772 | 36985 ft | 457 kts | 178° |
| 2026-05-07 18:50 | -8.10896 | -79.10032 | 36984 ft | 469 kts | 159° |
| 2026-05-07 18:51 | -8.16648 | -79.06869 | 36982 ft | 471 kts | 155° |
| 2026-05-07 18:51 | -8.22382 | -79.03666 | 36987 ft | 472 kts | 155° |
| 2026-05-07 18:52 | -8.28134 | -79.00474 | 36983 ft | 472 kts | 155° |
| 2026-05-07 18:52 | -8.33882 | -78.97282 | 37009 ft | 472 kts | 155° |
| 2026-05-07 18:53 | -8.39597 | -78.94102 | 37013 ft | 472 kts | 155° |
| 2026-05-07 18:53 | -8.45352 | -78.90894 | 37014 ft | 472 kts | 155° |
| 2026-05-07 18:54 | -8.51103 | -78.87700 | 36986 ft | 472 kts | 155° |
| 2026-05-07 18:54 | -8.56855 | -78.84499 | 36999 ft | 472 kts | 155° |
| 2026-05-07 18:55 | -8.62610 | -78.81295 | 37049 ft | 472 kts | 155° |
| 2026-05-07 18:55 | -8.67389 | -78.78632 | 37013 ft | 472 kts | 155° |
| 2026-05-07 18:56 | -8.73140 | -78.75424 | 37012 ft | 472 kts | 155° |
| 2026-05-07 18:56 | -8.78889 | -78.72214 | 36996 ft | 472 kts | 155° |
| 2026-05-07 18:57 | -8.84630 | -78.69011 | 36993 ft | 472 kts | 155° |
| 2026-05-07 18:57 | -8.90387 | -78.65805 | 37030 ft | 472 kts | 155° |
| 2026-05-07 18:58 | -8.96144 | -78.62593 | 37017 ft | 472 kts | 155° |
| 2026-05-07 18:58 | -9.01890 | -78.59379 | 37015 ft | 472 kts | 155° |
| 2026-05-07 18:59 | -9.07641 | -78.56169 | 36998 ft | 472 kts | 155° |
| 2026-05-07 18:59 | -9.13386 | -78.52955 | 36995 ft | 472 kts | 155° |
| 2026-05-07 19:00 | -9.19192 | -78.49869 | 36986 ft | 470 kts | 158° |
| 2026-05-07 19:00 | -9.25114 | -78.47068 | 36987 ft | 469 kts | 160° |
| 2026-05-07 19:01 | -9.31004 | -78.44308 | 37000 ft | 470 kts | 159° |
| 2026-05-07 19:01 | -9.36908 | -78.41460 | 37002 ft | 470 kts | 159° |
| 2026-05-07 19:02 | -9.42798 | -78.38573 | 37036 ft | 470 kts | 159° |
| 2026-05-07 19:02 | -9.48671 | -78.35695 | 37045 ft | 470 kts | 159° |
| 2026-05-07 19:03 | -9.54590 | -78.32813 | 37054 ft | 470 kts | 159° |
| 2026-05-07 19:03 | -9.60491 | -78.29953 | 37057 ft | 470 kts | 159° |
| 2026-05-07 19:04 | -9.66384 | -78.27093 | 37067 ft | 470 kts | 159° |
| 2026-05-07 19:04 | -9.72280 | -78.24224 | 37090 ft | 470 kts | 159° |
| 2026-05-07 19:05 | -9.78182 | -78.21345 | 37068 ft | 471 kts | 159° |
| 2026-05-07 19:05 | -9.84087 | -78.18458 | 37065 ft | 471 kts | 159° |
| 2026-05-07 19:06 | -9.89987 | -78.15581 | 37062 ft | 471 kts | 159° |
| 2026-05-07 19:06 | -9.98811 | -78.11274 | 37052 ft | 471 kts | 159° |
| 2026-05-07 19:07 | -10.04718 | -78.08393 | 37091 ft | 471 kts | 159° |
| 2026-05-07 19:07 | -10.10627 | -78.05505 | 37063 ft | 471 kts | 159° |
| 2026-05-07 19:08 | -10.16540 | -78.02613 | 36752 ft | 471 kts | 159° |
| 2026-05-07 19:08 | -10.19492 | -78.01167 | 36507 ft | 471 kts | 159° |
| 2026-05-07 19:08 | -10.22432 | -77.99725 | 36246 ft | 470 kts | 159° |
| 2026-05-07 19:09 | -10.25386 | -77.98278 | 36005 ft | 470 kts | 159° |
| 2026-05-07 19:09 | -10.28332 | -77.96841 | 35614 ft | 471 kts | 159° |
| 2026-05-07 19:09 | -10.31299 | -77.95399 | 34860 ft | 474 kts | 159° |
| 2026-05-07 19:09 | -10.34284 | -77.93947 | 34085 ft | 477 kts | 159° |
| 2026-05-07 19:10 | -10.37294 | -77.92481 | 33054 ft | 483 kts | 158° |
| 2026-05-07 19:10 | -10.40329 | -77.90997 | 32154 ft | 485 kts | 157° |
| 2026-05-07 19:10 | -10.43363 | -77.89512 | 31526 ft | 482 kts | 157° |
| 2026-05-07 19:10 | -10.46364 | -77.88040 | 30949 ft | 478 kts | 157° |
| 2026-05-07 19:11 | -10.49357 | -77.86573 | 30309 ft | 475 kts | 156° |
| 2026-05-07 19:11 | -10.52328 | -77.85115 | 29641 ft | 473 kts | 156° |
| 2026-05-07 19:11 | -10.55281 | -77.83670 | 29035 ft | 469 kts | 156° |
| 2026-05-07 19:11 | -10.58206 | -77.82243 | 28420 ft | 464 kts | 156° |
| 2026-05-07 19:12 | -10.61105 | -77.80828 | 27831 ft | 460 kts | 156° |
| 2026-05-07 19:12 | -10.63939 | -77.79444 | 27206 ft | 456 kts | 156° |
| 2026-05-07 19:12 | -10.66781 | -77.78055 | 26616 ft | 452 kts | 156° |
| 2026-05-07 19:12 | -10.69609 | -77.76672 | 26023 ft | 449 kts | 155° |
| 2026-05-07 19:13 | -10.72408 | -77.75300 | 25450 ft | 445 kts | 155° |
| 2026-05-07 19:13 | -10.75179 | -77.73942 | 24971 ft | 436 kts | 155° |
| 2026-05-07 19:13 | -10.77859 | -77.72630 | 24348 ft | 420 kts | 154° |
| 2026-05-07 19:13 | -10.80444 | -77.71365 | 23857 ft | 404 kts | 154° |
| 2026-05-07 19:14 | -10.82937 | -77.70141 | 23239 ft | 393 kts | 153° |
| 2026-05-07 19:14 | -10.85381 | -77.68944 | 22400 ft | 388 kts | 153° |
| 2026-05-07 19:14 | -10.87796 | -77.67762 | 21534 ft | 383 kts | 153° |
| 2026-05-07 19:14 | -10.90184 | -77.66593 | 20784 ft | 376 kts | 153° |
| 2026-05-07 19:15 | -10.92519 | -77.65446 | 20184 ft | 372 kts | 153° |
| 2026-05-07 19:15 | -10.94854 | -77.64298 | 19676 ft | 372 kts | 153° |
| 2026-05-07 19:15 | -10.97177 | -77.63159 | 19205 ft | 370 kts | 153° |
| 2026-05-07 19:15 | -10.99481 | -77.62031 | 18817 ft | 366 kts | 153° |
| 2026-05-07 19:16 | -11.01773 | -77.60910 | 18391 ft | 364 kts | 152° |
| 2026-05-07 19:16 | -11.04039 | -77.59800 | 17965 ft | 359 kts | 152° |
| 2026-05-07 19:16 | -11.06281 | -77.58700 | 17425 ft | 359 kts | 153° |
| 2026-05-07 19:16 | -11.08530 | -77.57593 | 16902 ft | 358 kts | 152° |
| 2026-05-07 19:17 | -11.10765 | -77.56490 | 16421 ft | 356 kts | 153° |
| 2026-05-07 19:17 | -11.12991 | -77.55392 | 15915 ft | 355 kts | 153° |
| 2026-05-07 19:17 | -11.15212 | -77.54301 | 15437 ft | 354 kts | 153° |
| 2026-05-07 19:17 | -11.17433 | -77.53211 | 14978 ft | 353 kts | 153° |
| 2026-05-07 19:18 | -11.19619 | -77.52139 | 14770 ft | 343 kts | 153° |
| 2026-05-07 19:18 | -11.21731 | -77.51102 | 14672 ft | 331 kts | 153° |
| 2026-05-07 19:18 | -11.23776 | -77.50099 | 14549 ft | 321 kts | 153° |
| 2026-05-07 19:18 | -11.25775 | -77.49124 | 14303 ft | 316 kts | 154° |
| 2026-05-07 19:19 | -11.27735 | -77.48192 | 14003 ft | 314 kts | 155° |
| 2026-05-07 19:19 | -11.29720 | -77.47261 | 13652 ft | 314 kts | 155° |
| 2026-05-07 19:19 | -11.31701 | -77.46334 | 13297 ft | 312 kts | 155° |
| 2026-05-07 19:19 | -11.33662 | -77.45416 | 12951 ft | 310 kts | 155° |
| 2026-05-07 19:20 | -11.35617 | -77.44501 | 12611 ft | 308 kts | 155° |
| 2026-05-07 19:20 | -11.37557 | -77.43593 | 12278 ft | 306 kts | 155° |
| 2026-05-07 19:20 | -11.39489 | -77.42685 | 11936 ft | 305 kts | 155° |
| 2026-05-07 19:20 | -11.41408 | -77.41781 | 11608 ft | 303 kts | 155° |
| 2026-05-07 19:21 | -11.43312 | -77.40883 | 11286 ft | 301 kts | 155° |
| 2026-05-07 19:21 | -11.45209 | -77.39989 | 11028 ft | 298 kts | 155° |
| 2026-05-07 19:21 | -11.47084 | -77.39105 | 10889 ft | 296 kts | 155° |
| 2026-05-07 19:21 | -11.48957 | -77.38220 | 10204 ft | 297 kts | 155° |
| 2026-05-07 19:22 | -11.50830 | -77.37335 | 9620 ft | 294 kts | 155° |
| 2026-05-07 19:22 | -11.52670 | -77.36465 | 9174 ft | 289 kts | 155° |
| 2026-05-07 19:22 | -11.54483 | -77.35610 | 8694 ft | 285 kts | 155° |
| 2026-05-07 19:22 | -11.56267 | -77.34772 | 8124 ft | 281 kts | 155° |
| 2026-05-07 19:23 | -11.58044 | -77.33937 | 7792 ft | 279 kts | 155° |
| 2026-05-07 19:23 | -11.59783 | -77.33114 | 7653 ft | 271 kts | 155° |
| 2026-05-07 19:23 | -11.61459 | -77.32317 | 7524 ft | 261 kts | 155° |
| 2026-05-07 19:23 | -11.63091 | -77.31543 | 7297 ft | 257 kts | 155° |
| 2026-05-07 19:24 | -11.64701 | -77.30780 | 7078 ft | 253 kts | 155° |
| 2026-05-07 19:24 | -11.66294 | -77.30029 | 6828 ft | 251 kts | 155° |
| 2026-05-07 19:24 | -11.67878 | -77.29282 | 6531 ft | 251 kts | 155° |
| 2026-05-07 19:24 | -11.69452 | -77.28541 | 6168 ft | 254 kts | 155° |
| 2026-05-07 19:25 | -11.71047 | -77.27788 | 5726 ft | 252 kts | 155° |
| 2026-05-07 19:25 | -11.72660 | -77.27027 | 5185 ft | 252 kts | 155° |
| 2026-05-07 19:25 | -11.74214 | -77.26294 | 4804 ft | 247 kts | 154° |
| 2026-05-07 19:25 | -11.75759 | -77.25565 | 4436 ft | 243 kts | 154° |
| 2026-05-07 19:26 | -11.77293 | -77.24840 | 4186 ft | 240 kts | 154° |
| 2026-05-07 19:26 | -11.78787 | -77.24134 | 4014 ft | 233 kts | 154° |
| 2026-05-07 19:26 | -11.80237 | -77.23449 | 3857 ft | 225 kts | 154° |
| 2026-05-07 19:26 | -11.81627 | -77.22778 | 3707 ft | 217 kts | 154° |
| 2026-05-07 19:27 | -11.82959 | -77.22112 | 3566 ft | 209 kts | 154° |
| 2026-05-07 19:27 | -11.84236 | -77.21478 | 3506 ft | 198 kts | 154° |
| 2026-05-07 19:27 | -11.85455 | -77.20876 | 3354 ft | 193 kts | 154° |
| 2026-05-07 19:27 | -11.86659 | -77.20283 | 3134 ft | 191 kts | 154° |
| 2026-05-07 19:28 | -11.87854 | -77.19694 | 2894 ft | 190 kts | 154° |
| 2026-05-07 19:28 | -11.89039 | -77.19110 | 2654 ft | 189 kts | 154° |
| 2026-05-07 19:28 | -11.90220 | -77.18528 | 2405 ft | 188 kts | 155° |
| 2026-05-07 19:28 | -11.91390 | -77.17952 | 2155 ft | 187 kts | 155° |
| 2026-05-07 19:29 | -11.92552 | -77.17379 | 1914 ft | 182 kts | 156° |
| 2026-05-07 19:29 | -11.93617 | -77.16852 | 1697 ft | 159 kts | 156° |
| 2026-05-07 19:29 | -11.94577 | -77.16379 | 1487 ft | 149 kts | 156° |
| 2026-05-07 19:29 | -11.95502 | -77.15924 | 1299 ft | 146 kts | 157° |
| 2026-05-07 19:30 | -11.96409 | -77.15477 | 1099 ft | 144 kts | 156° |
| 2026-05-07 19:30 | -11.97307 | -77.15034 | 912 ft | 143 kts | 156° |
| 2026-05-07 19:30 | -11.98200 | -77.14598 | 718 ft | 142 kts | 157° |
| 2026-05-07 19:30 | -11.99084 | -77.14163 | 537 ft | 139 kts | 156° |
| 2026-05-07 19:31 | -11.99949 | -77.13738 | 383 ft | 137 kts | 159° |
| 2026-05-07 19:31 | -12.00806 | -77.13321 | 144 ft | 136 kts | 155° |
| 2026-05-07 19:31 | -12.01645 | -77.12889 | 50 ft | 130 kts | 159° |
| 2026-05-07 19:31 | -12.02317 | -77.12564 | 45 ft | 70 kts | 152° |
| 2026-05-07 19:32 | -12.02600 | -77.12417 | 51 ft | 34 kts | 149° |
| 2026-05-07 19:32 | -12.02721 | -77.12305 | 54 ft | 15 kts | 130° |
| 2026-05-07 19:32 | -12.02768 | -77.12230 | 57 ft | 9 kts | 109° |
| 2026-05-07 19:32 | -12.02753 | -77.12194 | 60 ft | 4 kts | 38° |
| 2026-05-07 19:33 | -12.02738 | -77.12188 | 64 ft | 1 kts | 17° |
| 2026-05-07 19:33 | -12.02724 | -77.12188 | 64 ft | 3 kts | 357° |
| 2026-05-07 19:33 | -12.02684 | -77.12206 | 56 ft | 9 kts | 335° |
| 2026-05-07 19:33 | -12.02604 | -77.12245 | 61 ft | 16 kts | 334° |
| 2026-05-07 19:34 | -12.02493 | -77.12300 | 51 ft | 20 kts | 334° |
| 2026-05-07 19:34 | -12.02361 | -77.12366 | 52 ft | 20 kts | 336° |
| 2026-05-07 19:34 | -12.02250 | -77.12417 | 50 ft | 15 kts | 347° |
| 2026-05-07 19:34 | -12.02189 | -77.12356 | 52 ft | 12 kts | 65° |
| 2026-05-07 19:35 | -12.02154 | -77.12280 | 55 ft | 11 kts | 64° |
| 2026-05-07 19:35 | -12.02122 | -77.12212 | 59 ft | 10 kts | 63° |
| 2026-05-07 19:35 | -12.02089 | -77.12146 | 60 ft | 11 kts | 63° |
| 2026-05-07 19:35 | -12.02057 | -77.12078 | 61 ft | 12 kts | 64° |
| 2026-05-07 19:36 | -12.02020 | -77.12001 | 60 ft | 13 kts | 64° |
| 2026-05-07 19:36 | -12.01977 | -77.11911 | 66 ft | 15 kts | 64° |
| 2026-05-07 19:36 | -12.01929 | -77.11811 | 60 ft | 17 kts | 64° |
| 2026-05-07 19:36 | -12.01955 | -77.11722 | 61 ft | 16 kts | 154° |
| 2026-05-07 19:37 | -12.02057 | -77.11672 | 65 ft | 18 kts | 154° |
| 2026-05-07 19:37 | -12.02166 | -77.11618 | 69 ft | 17 kts | 155° |
| 2026-05-07 19:37 | -12.02268 | -77.11568 | 76 ft | 14 kts | 154° |
| 2026-05-07 19:37 | -12.02329 | -77.11592 | 83 ft | 10 kts | 244° |
| 2026-05-07 19:38 | -12.02362 | -77.11664 | 82 ft | 13 kts | 244° |
| 2026-05-07 19:38 | -12.02418 | -77.11729 | 80 ft | 13 kts | 183° |
| 2026-05-07 19:38 | -12.02471 | -77.11694 | 80 ft | 7 kts | 91° |
| 2026-05-07 19:38 | -12.02451 | -77.11654 | 82 ft | 6 kts | 63° |
| 2026-05-07 19:39 | -12.02441 | -77.11633 | 83 ft | 0 kts | 64° |
| 2026-05-07 19:39 | -12.02440 | -77.11633 | 83 ft | 0 kts | 64° |